createdAt,value
2023-05-15T00:00:04.824Z,0.00
2023-05-15T00:01:05.177Z,0.00
2023-05-15T00:02:05.644Z,0.00
2023-05-15T00:03:05.977Z,0.00
2023-05-15T00:04:06.310Z,0.00
2023-05-15T00:05:06.762Z,0.00
2023-05-15T00:06:07.010Z,0.00
2023-05-15T00:07:07.370Z,0.00
2023-05-15T00:08:07.706Z,0.00
2023-05-15T00:09:08.055Z,0.00
2023-05-15T00:10:08.428Z,0.00
2023-05-15T00:11:08.815Z,0.00
2023-05-15T00:12:09.143Z,0.00
2023-05-15T00:13:09.548Z,0.00
2023-05-15T00:14:09.882Z,0.00
2023-05-15T00:15:10.231Z,0.00
2023-05-15T00:16:10.669Z,0.00
2023-05-15T00:17:10.965Z,0.00
2023-05-15T00:18:11.438Z,0.00
2023-05-15T00:19:11.740Z,0.00
2023-05-15T00:20:12.009Z,0.00
2023-05-15T00:21:12.460Z,0.00
2023-05-15T00:22:12.725Z,0.00
2023-05-15T00:23:13.115Z,0.00
2023-05-15T00:24:13.477Z,0.00
2023-05-15T00:25:13.782Z,0.00
2023-05-15T00:26:14.149Z,0.00
2023-05-15T00:27:14.566Z,0.00
2023-05-15T00:28:14.894Z,0.00
2023-05-15T00:29:15.263Z,0.00
2023-05-15T00:30:15.597Z,0.00
2023-05-15T00:31:15.972Z,0.00
2023-05-15T00:32:16.303Z,0.00
2023-05-15T00:33:16.758Z,0.00
2023-05-15T00:34:17.035Z,0.00
2023-05-15T00:35:17.403Z,0.00
2023-05-15T00:36:17.790Z,0.00
2023-05-15T00:37:18.213Z,0.00
2023-05-15T00:38:18.528Z,0.00
2023-05-15T00:39:18.834Z,0.00
2023-05-15T00:40:19.398Z,0.00
2023-05-15T00:41:19.570Z,0.00
2023-05-15T00:42:19.943Z,0.00
2023-05-15T00:43:20.422Z,0.00
2023-05-15T00:44:20.662Z,0.00
2023-05-15T00:45:21.032Z,0.00
2023-05-15T00:46:21.449Z,0.00
2023-05-15T00:47:21.757Z,0.00
2023-05-15T00:48:22.124Z,0.00
2023-05-15T00:49:22.455Z,0.00
2023-05-15T00:50:22.873Z,0.00
2023-05-15T00:51:23.199Z,0.00
2023-05-15T00:52:23.572Z,0.00
2023-05-15T00:53:23.939Z,0.00
2023-05-15T00:54:24.306Z,0.00
2023-05-15T00:55:24.921Z,0.00
2023-05-15T00:56:25.039Z,0.00
2023-05-15T00:57:25.431Z,0.00
2023-05-15T00:58:25.808Z,0.00
2023-05-15T00:59:26.095Z,0.00
2023-05-15T01:00:26.449Z,0.00
2023-05-15T01:01:26.894Z,0.00
2023-05-15T01:02:27.236Z,0.00
2023-05-15T01:03:27.586Z,0.00
2023-05-15T01:04:27.868Z,0.00
2023-05-15T01:05:28.240Z,0.00
2023-05-15T01:06:28.552Z,0.00
2023-05-15T01:07:28.908Z,0.00
2023-05-15T01:08:29.301Z,0.00
2023-05-15T01:09:29.633Z,0.00
2023-05-15T01:10:29.970Z,0.00
2023-05-15T01:11:30.312Z,0.00
2023-05-15T01:12:30.680Z,0.00
2023-05-15T01:13:31.103Z,0.00
2023-05-15T01:14:31.360Z,0.00
2023-05-15T01:15:31.731Z,0.00
2023-05-15T01:16:32.040Z,0.00
2023-05-15T01:17:32.426Z,0.00
2023-05-15T01:18:32.895Z,0.00
2023-05-15T01:19:33.232Z,0.00
2023-05-15T01:20:33.434Z,0.00
2023-05-15T01:21:33.796Z,0.00
2023-05-15T01:22:34.173Z,0.00
2023-05-15T01:23:34.581Z,0.00
2023-05-15T01:24:34.889Z,0.00
2023-05-15T01:25:35.208Z,0.00
2023-05-15T01:26:35.587Z,0.00
2023-05-15T01:27:35.898Z,0.00
2023-05-15T01:28:36.246Z,0.00
2023-05-15T01:29:36.597Z,0.00
2023-05-15T01:30:36.958Z,0.00
2023-05-15T01:31:37.348Z,0.00
2023-05-15T01:32:37.703Z,0.00
2023-05-15T01:33:38.077Z,0.00
2023-05-15T01:34:38.492Z,0.00
2023-05-15T01:35:38.742Z,0.00
2023-05-15T01:36:39.101Z,0.00
2023-05-15T01:37:39.469Z,0.00
2023-05-15T01:38:39.840Z,0.00
2023-05-15T01:39:40.159Z,0.00
2023-05-15T01:40:40.516Z,0.00
2023-05-15T01:41:40.851Z,0.00
2023-05-15T01:42:41.281Z,0.00
2023-05-15T01:43:41.571Z,0.00
2023-05-15T01:44:41.956Z,0.00
2023-05-15T01:45:42.213Z,0.00
2023-05-15T01:46:42.677Z,0.00
2023-05-15T01:47:42.942Z,0.00
2023-05-15T01:48:43.320Z,0.00
2023-05-15T01:49:43.643Z,0.00
2023-05-15T01:50:44.022Z,0.00
2023-05-15T01:51:44.336Z,0.00
2023-05-15T01:52:44.693Z,0.00
2023-05-15T01:53:45.115Z,0.00
2023-05-15T01:54:45.406Z,0.00
2023-05-15T01:55:45.737Z,0.00
2023-05-15T01:56:46.099Z,0.00
2023-05-15T01:57:46.432Z,0.00
2023-05-15T01:58:46.884Z,0.00
2023-05-15T01:59:47.118Z,0.00
2023-05-15T02:00:47.496Z,0.00
2023-05-15T02:01:47.961Z,0.00
2023-05-15T02:02:48.232Z,0.00
2023-05-15T02:03:48.575Z,0.00
2023-05-15T02:04:48.858Z,0.00
2023-05-15T02:05:49.244Z,0.00
2023-05-15T02:06:49.558Z,0.00
2023-05-15T02:07:49.947Z,0.00
2023-05-15T02:08:50.279Z,0.00
2023-05-15T02:09:50.631Z,0.00
2023-05-15T02:10:50.937Z,0.00
2023-05-15T02:11:51.315Z,0.00
2023-05-15T02:12:51.647Z,0.00
2023-05-15T02:13:52.009Z,0.00
2023-05-15T02:14:52.326Z,0.00
2023-05-15T02:15:52.716Z,0.00
2023-05-15T02:16:53.087Z,0.00
2023-05-15T02:17:53.466Z,0.00
2023-05-15T02:18:53.787Z,0.00
2023-05-15T02:19:54.105Z,0.00
2023-05-15T02:20:54.472Z,0.00
2023-05-15T02:21:54.837Z,0.00
2023-05-15T02:22:55.169Z,0.00
2023-05-15T02:23:55.559Z,0.00
2023-05-15T02:24:55.896Z,0.00
2023-05-15T02:25:56.288Z,0.00
2023-05-15T02:26:56.568Z,0.00
2023-05-15T02:27:56.939Z,0.00
2023-05-15T02:28:57.310Z,0.00
2023-05-15T02:29:57.607Z,0.00
2023-05-15T02:30:57.952Z,0.00
2023-05-15T02:31:58.354Z,0.00
2023-05-15T02:33:04.691Z,0.00
2023-05-15T02:33:59.032Z,0.00
2023-05-15T02:34:59.384Z,0.00
2023-05-15T02:35:59.754Z,0.00
2023-05-15T02:37:00.154Z,0.00
2023-05-15T02:38:00.492Z,0.00
2023-05-15T02:39:00.873Z,0.00
2023-05-15T02:40:01.224Z,0.00
2023-05-15T02:41:01.414Z,1.00
2023-05-15T02:42:01.709Z,1.00
2023-05-15T02:43:01.999Z,1.00
2023-05-15T02:44:02.287Z,2.00
2023-05-15T02:45:02.558Z,2.00
2023-05-15T02:46:02.864Z,2.00
2023-05-15T02:47:03.152Z,3.00
2023-05-15T02:48:03.467Z,2.00
2023-05-15T02:49:03.728Z,3.00
2023-05-15T02:50:04.007Z,4.00
2023-05-15T02:51:04.295Z,5.00
2023-05-15T02:52:04.577Z,6.00
2023-05-15T02:53:04.863Z,7.00
2023-05-15T02:54:05.226Z,5.00
2023-05-15T02:55:05.448Z,6.00
2023-05-15T02:56:05.743Z,10.00
2023-05-15T02:57:06.043Z,11.00
2023-05-15T02:58:06.331Z,11.00
2023-05-15T02:59:06.681Z,13.00
2023-05-15T03:00:06.859Z,17.00
2023-05-15T03:01:07.013Z,18.00
2023-05-15T03:02:07.258Z,22.00
2023-05-15T03:03:07.556Z,22.00
2023-05-15T03:04:07.883Z,21.00
2023-05-15T03:05:08.120Z,33.00
2023-05-15T03:06:08.391Z,34.00
2023-05-15T03:07:08.920Z,39.00
2023-05-15T03:08:08.944Z,43.00
2023-05-15T03:09:09.131Z,45.00
2023-05-15T03:10:09.516Z,52.00
2023-05-15T03:11:09.674Z,58.00
2023-05-15T03:12:09.999Z,56.00
2023-05-15T03:13:10.247Z,63.00
2023-05-15T03:14:10.482Z,71.00
2023-05-15T03:15:10.713Z,83.00
2023-05-15T03:16:10.982Z,89.00
2023-05-15T03:17:11.336Z,89.00
2023-05-15T03:18:11.626Z,104.00
2023-05-15T03:19:11.807Z,113.00
2023-05-15T03:20:12.025Z,127.00
2023-05-15T03:21:12.312Z,137.00
2023-05-15T03:22:12.607Z,150.00
2023-05-15T03:23:12.751Z,158.00
2023-05-15T03:24:12.942Z,165.00
2023-05-15T03:25:13.241Z,178.00
2023-05-15T03:26:13.503Z,191.00
2023-05-15T03:27:13.671Z,211.00
2023-05-15T03:28:13.843Z,220.00
2023-05-15T03:29:14.151Z,240.00
2023-05-15T03:30:14.325Z,257.00
2023-05-15T03:31:14.583Z,268.00
2023-05-15T03:32:14.640Z,283.00
2023-05-15T03:33:14.845Z,300.00
2023-05-15T03:34:15.010Z,315.00
2023-05-15T03:35:15.175Z,331.00
2023-05-15T03:36:15.348Z,351.00
2023-05-15T03:37:15.532Z,368.00
2023-05-15T03:38:15.689Z,390.00
2023-05-15T03:39:15.887Z,409.00
2023-05-15T03:40:16.143Z,431.00
2023-05-15T03:41:16.322Z,452.00
2023-05-15T03:42:16.482Z,466.00
2023-05-15T03:43:16.669Z,498.00
2023-05-15T03:44:16.895Z,520.00
2023-05-15T03:45:17.012Z,547.00
2023-05-15T03:46:17.236Z,568.00
2023-05-15T03:47:17.336Z,592.00
2023-05-15T03:48:17.649Z,620.00
2023-05-15T03:49:17.840Z,646.00
2023-05-15T03:50:18.112Z,674.00
2023-05-15T03:51:18.277Z,705.00
2023-05-15T03:52:18.443Z,735.00
2023-05-15T03:53:18.633Z,764.00
2023-05-15T03:54:18.927Z,787.00
2023-05-15T03:55:19.209Z,825.00
2023-05-15T03:56:19.365Z,862.00
2023-05-15T03:57:19.543Z,892.00
2023-05-15T03:58:19.722Z,929.00
2023-05-15T03:59:19.940Z,962.00
2023-05-15T04:00:20.061Z,992.00
2023-05-15T04:01:20.253Z,1026.00
2023-05-15T04:02:20.444Z,1057.00
2023-05-15T04:03:20.902Z,1090.00
2023-05-15T04:04:20.924Z,1122.00
2023-05-15T04:05:21.104Z,1154.00
2023-05-15T04:06:21.260Z,1186.00
2023-05-15T04:07:21.442Z,1214.00
2023-05-15T04:08:21.636Z,1242.00
2023-05-15T04:09:21.873Z,1281.00
2023-05-15T04:10:22.121Z,1315.00
2023-05-15T04:11:22.254Z,1350.00
2023-05-15T04:12:22.443Z,1381.00
2023-05-15T04:13:22.627Z,1415.00
2023-05-15T04:14:22.940Z,1438.00
2023-05-15T04:15:23.340Z,1479.00
2023-05-15T04:16:23.450Z,1517.00
2023-05-15T04:17:23.632Z,1549.00
2023-05-15T04:18:23.794Z,1580.00
2023-05-15T04:19:24.094Z,1610.00
2023-05-15T04:20:24.346Z,1637.00
2023-05-15T04:21:24.447Z,1685.00
2023-05-15T04:22:24.739Z,1704.00
2023-05-15T04:23:25.054Z,1733.00
2023-05-15T04:24:25.251Z,1773.00
2023-05-15T04:25:25.800Z,1796.00
2023-05-15T04:26:25.730Z,1826.00
2023-05-15T04:27:26.011Z,1850.00
2023-05-15T04:28:26.418Z,1872.00
2023-05-15T04:29:26.521Z,1900.00
2023-05-15T04:30:26.691Z,1924.00
2023-05-15T04:31:26.905Z,1945.00
2023-05-15T04:32:27.094Z,1959.00
2023-05-15T04:33:27.292Z,1976.00
2023-05-15T04:34:27.463Z,1991.00
2023-05-15T04:35:27.759Z,1995.00
2023-05-15T04:36:27.821Z,1995.00
2023-05-15T04:37:28.017Z,1999.00
2023-05-15T04:38:28.207Z,2004.00
2023-05-15T04:39:28.407Z,2006.00
2023-05-15T04:40:28.560Z,2008.00
2023-05-15T04:41:28.740Z,2010.00
2023-05-15T04:42:28.940Z,2013.00
2023-05-15T04:43:29.128Z,2025.00
2023-05-15T04:44:29.343Z,2031.00
2023-05-15T04:45:29.545Z,2040.00
2023-05-15T04:46:29.744Z,2051.00
2023-05-15T04:47:29.909Z,2063.00
2023-05-15T04:48:30.047Z,2076.00
2023-05-15T04:49:30.245Z,2086.00
2023-05-15T04:50:30.401Z,2099.00
2023-05-15T04:51:30.589Z,2116.00
2023-05-15T04:52:30.795Z,2129.00
2023-05-15T04:53:30.978Z,2146.00
2023-05-15T04:54:31.187Z,2167.00
2023-05-15T04:55:31.785Z,2184.00
2023-05-15T04:56:31.526Z,2199.00
2023-05-15T04:57:31.716Z,2226.00
2023-05-15T04:58:31.908Z,2253.00
2023-05-15T04:59:32.138Z,2277.00
2023-05-15T05:00:32.268Z,2292.00
2023-05-15T05:01:32.545Z,2312.00
2023-05-15T05:02:32.715Z,2333.00
2023-05-15T05:03:32.881Z,2355.00
2023-05-15T05:04:33.062Z,2374.00
2023-05-15T05:05:33.214Z,2406.00
2023-05-15T05:06:33.568Z,2429.00
2023-05-15T05:07:33.608Z,2447.00
2023-05-15T05:08:33.799Z,2464.00
2023-05-15T05:09:34.020Z,2484.00
2023-05-15T05:10:34.220Z,2501.00
2023-05-15T05:11:34.376Z,2526.00
2023-05-15T05:12:34.555Z,2542.00
2023-05-15T05:13:34.750Z,2560.00
2023-05-15T05:14:34.954Z,2579.00
2023-05-15T05:15:35.139Z,2599.00
2023-05-15T05:16:35.399Z,2612.00
2023-05-15T05:17:35.579Z,2626.00
2023-05-15T05:18:35.737Z,2641.00
2023-05-15T05:19:35.940Z,2657.00
2023-05-15T05:20:36.080Z,2674.00
2023-05-15T05:21:36.296Z,2689.00
2023-05-15T05:22:36.473Z,2705.00
2023-05-15T05:23:36.631Z,2722.00
2023-05-15T05:24:36.856Z,2738.00
2023-05-15T05:25:37.043Z,2757.00
2023-05-15T05:26:37.182Z,2775.00
2023-05-15T05:27:37.333Z,2795.00
2023-05-15T05:28:37.540Z,2813.00
2023-05-15T05:29:37.701Z,2829.00
2023-05-15T05:30:37.878Z,2848.00
2023-05-15T05:31:38.143Z,2866.00
2023-05-15T05:32:38.295Z,2885.00
2023-05-15T05:33:38.507Z,2908.00
2023-05-15T05:34:38.651Z,2925.00
2023-05-15T05:35:38.810Z,2941.00
2023-05-15T05:36:38.994Z,2957.00
2023-05-15T05:37:41.310Z,2973.00
2023-05-15T05:38:39.387Z,2991.00
2023-05-15T05:39:39.595Z,3006.00
2023-05-15T05:40:39.752Z,3023.00
2023-05-15T05:41:39.932Z,3035.00
2023-05-15T05:42:40.129Z,3051.00
2023-05-15T05:43:40.339Z,3068.00
2023-05-15T05:44:40.583Z,3078.00
2023-05-15T05:45:40.696Z,3085.00
2023-05-15T05:46:40.923Z,3096.00
2023-05-15T05:47:41.104Z,3108.00
2023-05-15T05:48:41.204Z,3124.00
2023-05-15T05:49:41.407Z,3132.00
2023-05-15T05:50:41.604Z,3145.00
2023-05-15T05:51:41.809Z,3163.00
2023-05-15T05:52:41.988Z,3179.00
2023-05-15T05:53:42.184Z,3202.00
2023-05-15T05:54:42.419Z,3222.00
2023-05-15T05:55:42.586Z,3242.00
2023-05-15T05:56:42.757Z,3257.00
2023-05-15T05:57:42.926Z,3279.00
2023-05-15T05:58:43.090Z,3295.00
2023-05-15T05:59:43.331Z,3309.00
2023-05-15T06:00:43.456Z,3321.00
2023-05-15T06:01:43.660Z,3335.00
2023-05-15T06:02:44.003Z,3351.00
2023-05-15T06:03:44.107Z,3370.00
2023-05-15T06:04:44.202Z,3378.00
2023-05-15T06:05:44.399Z,3396.00
2023-05-15T06:06:44.576Z,3411.00
2023-05-15T06:07:44.742Z,3422.00
2023-05-15T06:08:44.970Z,3431.00
2023-05-15T06:09:45.159Z,3443.00
2023-05-15T06:10:45.322Z,3453.00
2023-05-15T06:11:45.544Z,3464.00
2023-05-15T06:12:45.662Z,3472.00
2023-05-15T06:13:45.852Z,3492.00
2023-05-15T06:14:46.071Z,3511.00
2023-05-15T06:15:46.220Z,3532.00
2023-05-15T06:16:46.485Z,3559.00
2023-05-15T06:17:46.636Z,3584.00
2023-05-15T06:18:46.830Z,3607.00
2023-05-15T06:19:46.997Z,3631.00
2023-05-15T06:20:47.154Z,3646.00
2023-05-15T06:21:47.341Z,3668.00
2023-05-15T06:22:47.540Z,3680.00
2023-05-15T06:23:47.748Z,3694.00
2023-05-15T06:24:47.965Z,3702.00
2023-05-15T06:25:48.122Z,3713.00
2023-05-15T06:26:49.639Z,3728.00
2023-05-15T06:27:48.469Z,3736.00
2023-05-15T06:28:48.716Z,3746.00
2023-05-15T06:29:48.882Z,3762.00
2023-05-15T06:30:49.084Z,3772.00
2023-05-15T06:31:49.203Z,3785.00
2023-05-15T06:32:49.444Z,3796.00
2023-05-15T06:33:49.589Z,3785.00
2023-05-15T06:34:49.794Z,3753.00
2023-05-15T06:35:49.973Z,3776.00
2023-05-15T06:36:50.164Z,3810.00
2023-05-15T06:37:50.343Z,3815.00
2023-05-15T06:38:50.511Z,3838.00
2023-05-15T06:39:50.768Z,3888.00
2023-05-15T06:40:50.891Z,3955.00
2023-05-15T06:41:51.064Z,3987.00
2023-05-15T06:42:51.221Z,4012.00
2023-05-15T06:43:51.410Z,4037.00
2023-05-15T06:44:51.634Z,4060.00
2023-05-15T06:45:51.803Z,4072.00
2023-05-15T06:46:52.067Z,4086.00
2023-05-15T06:47:52.180Z,4102.00
2023-05-15T06:48:52.368Z,4115.00
2023-05-15T06:49:52.556Z,4129.00
2023-05-15T06:50:52.716Z,4144.00
2023-05-15T06:51:52.895Z,4164.00
2023-05-15T06:52:53.054Z,4168.00
2023-05-15T06:53:53.223Z,4171.00
2023-05-15T06:54:53.444Z,4176.00
2023-05-15T06:55:53.624Z,4196.00
2023-05-15T06:56:53.769Z,4211.00
2023-05-15T06:57:53.982Z,4220.00
2023-05-15T06:58:54.158Z,4233.00
2023-05-15T06:59:54.370Z,4253.00
2023-05-15T07:00:56.158Z,4277.00
2023-05-15T07:01:54.834Z,4302.00
2023-05-15T07:02:54.923Z,4327.00
2023-05-15T07:03:55.069Z,4354.00
2023-05-15T07:04:55.374Z,4389.00
2023-05-15T07:05:55.439Z,4411.00
2023-05-15T07:06:55.637Z,4438.00
2023-05-15T07:07:55.841Z,4462.00
2023-05-15T07:08:56.013Z,4482.00
2023-05-15T07:09:56.203Z,4497.00
2023-05-15T07:10:56.375Z,4520.00
2023-05-15T07:11:56.584Z,4536.00
2023-05-15T07:12:56.750Z,4551.00
2023-05-15T07:13:56.945Z,4571.00
2023-05-15T07:14:57.130Z,4592.00
2023-05-15T07:15:57.275Z,4605.00
2023-05-15T07:16:57.504Z,4614.00
2023-05-15T07:17:57.825Z,4621.00
2023-05-15T07:18:57.925Z,4630.00
2023-05-15T07:19:58.041Z,4645.00
2023-05-15T07:20:58.208Z,4654.00
2023-05-15T07:21:58.360Z,4670.00
2023-05-15T07:22:58.649Z,4674.00
2023-05-15T07:23:58.894Z,4690.00
2023-05-15T07:24:58.925Z,4705.00
2023-05-15T07:25:59.092Z,4719.00
2023-05-15T07:26:59.480Z,4738.00
2023-05-15T07:27:59.497Z,4753.00
2023-05-15T07:28:59.658Z,4755.00
2023-05-15T07:29:59.856Z,4760.00
2023-05-15T07:31:02.760Z,4784.00
2023-05-15T07:32:00.317Z,4793.00
2023-05-15T07:33:00.515Z,4812.00
2023-05-15T07:34:00.620Z,4828.00
2023-05-15T07:35:00.804Z,4849.00
2023-05-15T07:36:01.065Z,4861.00
2023-05-15T07:37:01.145Z,4875.00
2023-05-15T07:38:01.371Z,4895.00
2023-05-15T07:39:01.530Z,4912.00
2023-05-15T07:40:01.785Z,4934.00
2023-05-15T07:41:01.924Z,4964.00
2023-05-15T07:42:02.126Z,4985.00
2023-05-15T07:43:02.338Z,5008.00
2023-05-15T07:44:02.509Z,5023.00
2023-05-15T07:45:02.745Z,5036.00
2023-05-15T07:46:02.996Z,5058.00
2023-05-15T07:47:03.059Z,5074.00
2023-05-15T07:48:03.243Z,5091.00
2023-05-15T07:49:03.531Z,5116.00
2023-05-15T07:50:03.610Z,5131.00
2023-05-15T07:51:03.756Z,5143.00
2023-05-15T07:52:03.972Z,5155.00
2023-05-15T07:53:04.185Z,5171.00
2023-05-15T07:54:04.446Z,5193.00
2023-05-15T07:55:04.524Z,5213.00
2023-05-15T07:56:04.665Z,5233.00
2023-05-15T07:57:04.865Z,5240.00
2023-05-15T07:58:05.050Z,5262.00
2023-05-15T07:59:05.249Z,5287.00
2023-05-15T08:00:05.409Z,5313.00
2023-05-15T08:01:05.553Z,5333.00
2023-05-15T08:02:05.775Z,5352.00
2023-05-15T08:03:06.071Z,5373.00
2023-05-15T08:04:06.210Z,5369.00
2023-05-15T08:05:06.335Z,5380.00
2023-05-15T08:06:06.515Z,5394.00
2023-05-15T08:07:06.670Z,5417.00
2023-05-15T08:08:06.902Z,5450.00
2023-05-15T08:09:07.059Z,5479.00
2023-05-15T08:10:07.239Z,5525.00
2023-05-15T08:11:07.361Z,5562.00
2023-05-15T08:12:07.556Z,5607.00
2023-05-15T08:13:07.752Z,5660.00
2023-05-15T08:14:07.965Z,5711.00
2023-05-15T08:15:08.157Z,5748.00
2023-05-15T08:16:08.481Z,5784.00
2023-05-15T08:17:08.514Z,5820.00
2023-05-15T08:18:08.853Z,5855.00
2023-05-15T08:19:08.924Z,5892.00
2023-05-15T08:20:09.118Z,5916.00
2023-05-15T08:21:09.248Z,5942.00
2023-05-15T08:22:09.444Z,5968.00
2023-05-15T08:23:09.621Z,6001.00
2023-05-15T08:24:09.829Z,6038.00
2023-05-15T08:25:10.056Z,6052.00
2023-05-15T08:26:10.224Z,6069.00
2023-05-15T08:27:10.390Z,6072.00
2023-05-15T08:28:10.587Z,6066.00
2023-05-15T08:29:10.766Z,6069.00
2023-05-15T08:30:10.938Z,6056.00
2023-05-15T08:31:11.186Z,6055.00
2023-05-15T08:32:11.333Z,6071.00
2023-05-15T08:33:17.538Z,6099.00
2023-05-15T08:34:11.721Z,6126.00
2023-05-15T08:35:11.957Z,6139.00
2023-05-15T08:36:12.128Z,6155.00
2023-05-15T08:37:12.272Z,6170.00
2023-05-15T08:38:12.478Z,6191.00
2023-05-15T08:39:12.644Z,6216.00
2023-05-15T08:40:12.846Z,6299.00
2023-05-15T08:41:13.022Z,6441.00
2023-05-15T08:42:13.279Z,6548.00
2023-05-15T08:43:13.387Z,6597.00
2023-05-15T08:44:13.643Z,6632.00
2023-05-15T08:45:13.782Z,6669.00
2023-05-15T08:46:13.940Z,6721.00
2023-05-15T08:47:14.108Z,6771.00
2023-05-15T08:48:14.490Z,6812.00
2023-05-15T08:49:14.605Z,6848.00
2023-05-15T08:50:14.700Z,6884.00
2023-05-15T08:51:14.852Z,6913.00
2023-05-15T08:52:15.020Z,6960.00
2023-05-15T08:53:15.210Z,7018.00
2023-05-15T08:54:15.410Z,7070.00
2023-05-15T08:55:15.637Z,7105.00
2023-05-15T08:56:15.773Z,7142.00
2023-05-15T08:57:15.965Z,7159.00
2023-05-15T08:58:16.171Z,7189.00
2023-05-15T08:59:16.325Z,7204.00
2023-05-15T09:00:16.536Z,7232.00
2023-05-15T09:01:16.765Z,7264.00
2023-05-15T09:02:16.871Z,7301.00
2023-05-15T09:03:17.126Z,7318.00
2023-05-15T09:04:17.234Z,7343.00
2023-05-15T09:05:17.435Z,7373.00
2023-05-15T09:06:17.695Z,7422.00
2023-05-15T09:07:17.856Z,7465.00
2023-05-15T09:08:17.983Z,7515.00
2023-05-15T09:09:18.201Z,7564.00
2023-05-15T09:10:18.417Z,7611.00
2023-05-15T09:11:18.572Z,7667.00
2023-05-15T09:12:18.743Z,7728.00
2023-05-15T09:13:18.934Z,7806.00
2023-05-15T09:14:19.621Z,7903.00
2023-05-15T09:15:19.310Z,7995.00
2023-05-15T09:16:19.516Z,8089.00
2023-05-15T09:17:19.705Z,8170.00
2023-05-15T09:18:19.902Z,8283.00
2023-05-15T09:19:20.270Z,8374.00
2023-05-15T09:20:20.262Z,8502.00
2023-05-15T09:21:20.463Z,8659.00
2023-05-15T09:22:20.623Z,8839.00
2023-05-15T09:23:20.809Z,9045.00
2023-05-15T09:24:20.989Z,9305.00
2023-05-15T09:25:21.261Z,9654.00
2023-05-15T09:26:21.383Z,10185.00
2023-05-15T09:27:21.581Z,18295.00
2023-05-15T09:28:21.860Z,79209.00
2023-05-15T09:29:22.071Z,80897.00
2023-05-15T09:30:22.249Z,78806.00
2023-05-15T09:31:22.431Z,79494.00
2023-05-15T09:32:22.825Z,81123.00
2023-05-15T09:33:22.872Z,81741.00
2023-05-15T09:34:23.073Z,81457.00
2023-05-15T09:35:23.788Z,80837.00
2023-05-15T09:36:23.532Z,80321.00
2023-05-15T09:37:23.726Z,79892.00
2023-05-15T09:38:23.906Z,79686.00
2023-05-15T09:39:24.098Z,80403.00
2023-05-15T09:40:24.347Z,82268.00
2023-05-15T09:41:24.538Z,83369.00
2023-05-15T09:42:24.726Z,83136.00
2023-05-15T09:43:24.911Z,81839.00
2023-05-15T09:44:25.113Z,79980.00
2023-05-15T09:45:25.545Z,80820.00
2023-05-15T09:46:25.670Z,82148.00
2023-05-15T09:47:25.827Z,81611.00
2023-05-15T09:48:25.954Z,80431.00
2023-05-15T09:49:26.196Z,79949.00
2023-05-15T09:50:26.325Z,81034.00
2023-05-15T09:51:26.565Z,82294.00
2023-05-15T09:52:26.690Z,82704.00
2023-05-15T09:53:26.900Z,82211.00
2023-05-15T09:54:27.129Z,81838.00
2023-05-15T09:55:27.417Z,81462.00
2023-05-15T09:56:27.572Z,80807.00
2023-05-15T09:57:27.780Z,80851.00
2023-05-15T09:58:27.912Z,81862.00
2023-05-15T09:59:28.129Z,81540.00
2023-05-15T10:00:29.120Z,80564.00
2023-05-15T10:01:28.494Z,80746.00
2023-05-15T10:02:28.706Z,80508.00
2023-05-15T10:03:28.926Z,79083.00
2023-05-15T10:04:29.106Z,79026.00
2023-05-15T10:05:42.583Z,81905.00
2023-05-15T10:06:29.506Z,82709.00
2023-05-15T10:07:29.746Z,82043.00
2023-05-15T10:08:29.903Z,81183.00
2023-05-15T10:09:30.139Z,79993.00
2023-05-15T10:10:30.301Z,79607.00
2023-05-15T10:11:30.451Z,79949.00
2023-05-15T10:12:30.704Z,79925.00
2023-05-15T10:13:30.844Z,79851.00
2023-05-15T10:14:31.103Z,79285.00
2023-05-15T10:15:31.280Z,79884.00
2023-05-15T10:16:31.521Z,81203.00
2023-05-15T10:17:31.772Z,82547.00
2023-05-15T10:18:31.907Z,81914.00
2023-05-15T10:19:32.104Z,80259.00
2023-05-15T10:20:32.294Z,78723.00
2023-05-15T10:21:32.529Z,78263.00
2023-05-15T10:22:32.714Z,79272.00
2023-05-15T10:23:32.905Z,82080.00
2023-05-15T10:24:33.186Z,83217.00
2023-05-15T10:25:33.346Z,82517.00
2023-05-15T10:26:33.518Z,81131.00
2023-05-15T10:27:33.711Z,79271.00
2023-05-15T10:28:33.943Z,78271.00
2023-05-15T10:29:34.129Z,80678.00
2023-05-15T10:30:34.342Z,82906.00
2023-05-15T10:31:34.509Z,83080.00
2023-05-15T10:32:34.751Z,82574.00
2023-05-15T10:33:34.939Z,82178.00
2023-05-15T10:34:35.101Z,81421.00
2023-05-15T10:35:35.488Z,82271.00
2023-05-15T10:36:35.540Z,83525.00
2023-05-15T10:37:35.757Z,83078.00
2023-05-15T10:38:35.888Z,82459.00
2023-05-15T10:39:36.104Z,81699.00
2023-05-15T10:40:36.277Z,81395.00
2023-05-15T10:41:36.449Z,82522.00
2023-05-15T10:42:36.665Z,83374.00
2023-05-15T10:43:36.838Z,82197.00
2023-05-15T10:44:37.073Z,80522.00
2023-05-15T10:45:37.271Z,80167.00
2023-05-15T10:46:37.489Z,81061.00
2023-05-15T10:47:37.682Z,83428.00
2023-05-15T10:48:37.856Z,83148.00
2023-05-15T10:49:38.036Z,83599.00
2023-05-15T10:50:38.223Z,83294.00
2023-05-15T10:51:38.404Z,83524.00
2023-05-15T10:52:38.621Z,82269.00
2023-05-15T10:53:38.893Z,81672.00
2023-05-15T10:54:39.016Z,82623.00
2023-05-15T10:55:39.235Z,83738.00
2023-05-15T10:56:39.420Z,83305.00
2023-05-15T10:57:39.664Z,83233.00
2023-05-15T10:58:39.951Z,82641.00
2023-05-15T10:59:40.065Z,82839.00
2023-05-15T11:00:40.349Z,83757.00
2023-05-15T11:01:40.689Z,82605.00
2023-05-15T11:02:40.745Z,81682.00
2023-05-15T11:03:49.478Z,80523.00
2023-05-15T11:04:41.215Z,81135.00
2023-05-15T11:05:41.366Z,84196.00
2023-05-15T11:06:41.534Z,81415.00
2023-05-15T11:07:41.753Z,82060.00
2023-05-15T11:08:41.965Z,81917.00
2023-05-15T11:09:42.176Z,80455.00
2023-05-15T11:10:42.397Z,82395.00
2023-05-15T11:11:42.564Z,80832.00
2023-05-15T11:12:42.796Z,80162.00
2023-05-15T11:13:42.953Z,82731.00
2023-05-15T11:14:43.186Z,84083.00
2023-05-15T11:15:43.414Z,82536.00
2023-05-15T11:16:43.654Z,82192.00
2023-05-15T11:17:43.770Z,82104.00
2023-05-15T11:18:44.144Z,83255.00
2023-05-15T11:19:44.261Z,80273.00
2023-05-15T11:20:44.361Z,79854.00
2023-05-15T11:21:44.583Z,81351.00
2023-05-15T11:22:44.794Z,82745.00
2023-05-15T11:23:45.002Z,81977.00
2023-05-15T11:24:45.176Z,81938.00
2023-05-15T11:25:45.398Z,80230.00
2023-05-15T11:26:45.642Z,80183.00
2023-05-15T11:27:45.827Z,80383.00
2023-05-15T11:28:46.062Z,80423.00
2023-05-15T11:29:46.176Z,80881.00
2023-05-15T11:30:46.433Z,80982.00
2023-05-15T11:31:46.571Z,81685.00
2023-05-15T11:32:46.787Z,83453.00
2023-05-15T11:33:46.973Z,84180.00
2023-05-15T11:34:47.233Z,82734.00
2023-05-15T11:35:47.395Z,83837.00
2023-05-15T11:36:47.685Z,83738.00
2023-05-15T11:37:47.808Z,83272.00
2023-05-15T11:38:48.026Z,83352.00
2023-05-15T11:39:48.206Z,82795.00
2023-05-15T11:40:48.436Z,81809.00
2023-05-15T11:41:48.604Z,82455.00
2023-05-15T11:42:48.782Z,82030.00
2023-05-15T11:43:49.005Z,79101.00
2023-05-15T11:44:49.247Z,77553.00
2023-05-15T11:45:49.409Z,79568.00
2023-05-15T11:46:49.646Z,81275.00
2023-05-15T11:47:49.908Z,82153.00
2023-05-15T11:48:50.050Z,83639.00
2023-05-15T11:49:50.266Z,83087.00
2023-05-15T11:50:50.445Z,81775.00
2023-05-15T11:51:50.647Z,82509.00
2023-05-15T11:52:50.831Z,83367.00
2023-05-15T11:53:51.057Z,82116.00
2023-05-15T11:54:51.227Z,82382.00
2023-05-15T11:55:51.475Z,83378.00
2023-05-15T11:56:51.715Z,82929.00
2023-05-15T11:57:51.976Z,82693.00
2023-05-15T11:58:52.204Z,82128.00
2023-05-15T11:59:52.284Z,78515.00
2023-05-15T12:00:52.559Z,78443.00
2023-05-15T12:01:52.730Z,77572.00
2023-05-15T12:02:52.986Z,78300.00
2023-05-15T12:03:53.296Z,82437.00
2023-05-15T12:04:53.326Z,81064.00
2023-05-15T12:05:59.464Z,83075.00
2023-05-15T12:06:54.332Z,83714.00
2023-05-15T12:07:53.976Z,83575.00
2023-05-15T12:08:54.199Z,78440.00
2023-05-15T12:09:54.464Z,77953.00
2023-05-15T12:10:54.577Z,79239.00
2023-05-15T12:11:54.776Z,81563.00
2023-05-15T12:12:55.001Z,78711.00
2023-05-15T12:13:55.350Z,79174.00
2023-05-15T12:14:55.333Z,79512.00
2023-05-15T12:15:55.637Z,79718.00
2023-05-15T12:16:55.920Z,80174.00
2023-05-15T12:17:56.006Z,75397.00
2023-05-15T12:18:56.261Z,78593.00
2023-05-15T12:19:56.406Z,80018.00
2023-05-15T12:20:56.614Z,83079.00
2023-05-15T12:21:56.790Z,81872.00